createdAt,value
2019-04-04T00:00:56.686Z,22.52
2019-04-04T00:03:26.265Z,23.30
2019-04-04T00:05:56.630Z,22.13
2019-04-04T00:08:26.427Z,21.07
2019-04-04T00:10:55.696Z,20.10
2019-04-04T00:13:31.540Z,23.85
2019-04-04T00:16:03.608Z,22.32
2019-04-04T00:18:37.206Z,22.17
2019-04-04T00:21:11.442Z,22.80
2019-04-04T00:23:41.627Z,23.07
2019-04-04T00:26:23.292Z,21.85
2019-04-04T00:28:53.039Z,21.50
2019-04-04T00:31:22.638Z,21.85
2019-04-04T00:33:53.805Z,21.40
2019-04-04T00:36:23.395Z,23.90
2019-04-04T00:38:52.750Z,22.15
2019-04-04T00:41:34.060Z,20.60
2019-04-04T00:44:03.417Z,21.45
2019-04-04T00:46:32.690Z,22.00
2019-04-04T00:49:04.930Z,21.25
2019-04-04T00:51:53.956Z,22.52
2019-04-04T00:54:23.244Z,21.95
2019-04-04T00:56:52.753Z,21.45
2019-04-04T00:59:23.679Z,20.85
2019-04-04T01:01:55.043Z,19.73
2019-04-04T01:04:25.463Z,20.90
2019-04-04T01:06:55.330Z,21.25
2019-04-04T01:09:24.891Z,21.48
2019-04-04T01:11:54.486Z,19.85
2019-04-04T01:14:24.305Z,21.45
2019-04-04T01:16:53.868Z,21.42
2019-04-04T01:19:23.483Z,21.73
2019-04-04T01:21:53.351Z,19.98
2019-04-04T01:24:23.527Z,25.30
2019-04-04T01:26:53.112Z,19.82
2019-04-04T01:29:22.680Z,21.10
2019-04-04T01:31:52.247Z,19.05
2019-04-04T01:34:21.803Z,19.82
2019-04-04T01:36:51.403Z,18.75
2019-04-04T01:39:20.964Z,20.77
2019-04-04T01:41:50.717Z,19.75
2019-04-04T01:44:20.253Z,18.50
2019-04-04T01:46:49.815Z,19.62
2019-04-04T01:49:21.218Z,21.48
2019-04-04T01:51:51.683Z,19.37
2019-04-04T01:54:21.287Z,18.67
2019-04-04T01:56:50.854Z,18.23
2019-04-04T01:59:20.436Z,18.15
2019-04-04T02:01:51.114Z,19.02
2019-04-04T02:04:20.695Z,19.15
2019-04-04T02:06:50.299Z,19.70
2019-04-04T02:09:19.881Z,20.52
2019-04-04T02:11:49.483Z,17.87
2019-04-04T02:14:19.611Z,18.35
2019-04-04T02:16:51.508Z,19.65
2019-04-04T02:19:20.607Z,18.70
2019-04-04T02:21:50.194Z,18.87
2019-04-04T02:24:19.775Z,18.17
2019-04-04T02:26:50.373Z,17.90
2019-04-04T02:29:19.973Z,20.95
2019-04-04T02:31:53.549Z,20.10
2019-04-04T02:34:23.195Z,19.37
2019-04-04T02:36:52.827Z,19.77
2019-04-04T02:39:22.419Z,17.35
2019-04-04T02:41:52.044Z,18.05
2019-04-04T02:44:21.610Z,18.67
2019-04-04T02:46:52.337Z,19.12
2019-04-04T02:49:22.871Z,18.80
2019-04-04T02:51:52.442Z,17.48
2019-04-04T02:54:24.535Z,18.73
2019-04-04T02:56:53.231Z,16.77
2019-04-04T02:59:23.825Z,18.85
2019-04-04T03:02:06.147Z,18.42
2019-04-04T03:04:35.766Z,18.10
2019-04-04T03:07:05.353Z,17.67
2019-04-04T03:09:34.924Z,18.87
2019-04-04T03:12:05.410Z,16.25
2019-04-04T03:14:37.266Z,17.55
2019-04-04T03:17:06.232Z,18.20
2019-04-04T03:19:35.801Z,18.25
2019-04-04T03:22:05.399Z,17.23
2019-04-04T03:24:38.827Z,18.60
2019-04-04T03:27:06.198Z,18.32
2019-04-04T03:29:38.369Z,17.17
2019-04-04T03:32:13.146Z,18.75
2019-04-04T03:34:47.834Z,19.05
2019-04-04T03:37:12.365Z,17.42
2019-04-04T03:39:42.021Z,18.10
2019-04-04T03:42:11.592Z,17.80
2019-04-04T03:44:41.227Z,18.25
2019-04-04T03:47:11.381Z,17.75
2019-04-04T03:49:40.967Z,17.48
2019-04-04T03:52:11.556Z,17.37
2019-04-04T03:54:41.267Z,16.60
2019-04-04T03:57:12.155Z,17.27
2019-04-04T03:59:42.062Z,17.95
2019-04-04T04:02:11.620Z,17.50
2019-04-04T04:04:43.123Z,18.45
2019-04-04T04:07:15.047Z,18.70
2019-04-04T04:09:44.066Z,18.40
2019-04-04T04:12:13.686Z,19.00
2019-04-04T04:14:43.276Z,17.70
2019-04-04T04:17:12.959Z,18.32
2019-04-04T04:19:42.535Z,18.57
2019-04-04T04:22:13.078Z,18.80
2019-04-04T04:24:43.337Z,17.07
2019-04-04T04:27:15.497Z,17.48
2019-04-04T04:29:44.114Z,18.90
2019-04-04T04:32:13.712Z,18.50
2019-04-04T04:34:43.326Z,17.00
2019-04-04T04:37:12.863Z,15.95
2019-04-04T04:39:42.528Z,19.80
2019-04-04T04:42:12.111Z,17.45
2019-04-04T04:44:41.686Z,18.23
2019-04-04T04:47:11.389Z,19.67
2019-04-04T04:49:40.944Z,17.90
2019-04-04T04:52:12.265Z,16.23
2019-04-04T04:54:41.854Z,20.00
2019-04-04T04:57:17.746Z,21.30
2019-04-04T04:59:44.378Z,17.60
2019-04-04T05:02:14.466Z,16.35
2019-04-04T05:04:44.047Z,18.62
2019-04-04T05:07:13.697Z,18.48
2019-04-04T05:09:44.617Z,17.17
2019-04-04T05:12:14.616Z,15.80
2019-04-04T05:14:44.318Z,16.50
2019-04-04T05:17:14.177Z,18.37
2019-04-04T05:19:45.176Z,16.85
2019-04-04T05:22:14.889Z,15.75
2019-04-04T05:24:44.476Z,16.70
2019-04-04T05:27:14.116Z,17.45
2019-04-04T05:29:44.898Z,16.48
2019-04-04T05:32:15.357Z,17.98
2019-04-04T05:34:44.943Z,17.10
2019-04-04T05:37:14.565Z,19.25
2019-04-04T05:39:47.003Z,18.07
2019-04-04T05:42:16.342Z,17.23
2019-04-04T05:44:46.081Z,17.00
2019-04-04T05:47:15.615Z,18.15
2019-04-04T05:49:45.212Z,17.90
2019-04-04T05:52:14.795Z,17.55
2019-04-04T05:54:44.400Z,16.97
2019-04-04T05:57:14.052Z,18.27
2019-04-04T05:59:43.641Z,18.42
2019-04-04T06:02:13.563Z,18.95
2019-04-04T06:04:43.084Z,16.57
2019-04-04T06:07:12.665Z,15.80
2019-04-04T06:09:45.925Z,16.93
2019-04-04T06:12:14.426Z,16.45
2019-04-04T06:14:46.073Z,15.30
2019-04-04T06:17:15.267Z,16.57
2019-04-04T06:19:45.061Z,15.58
2019-04-04T06:22:14.692Z,16.85
2019-04-04T06:24:44.365Z,18.02
2019-04-04T06:27:15.052Z,18.37
2019-04-04T06:29:47.664Z,18.45
2019-04-04T06:32:15.845Z,15.72
2019-04-04T06:34:45.417Z,15.28
2019-04-04T06:37:15.018Z,16.50
2019-04-04T06:39:44.598Z,15.35
2019-04-04T06:42:14.250Z,17.70
2019-04-04T06:44:44.427Z,16.57
2019-04-04T06:47:16.366Z,14.53
2019-04-04T06:49:45.918Z,17.77
2019-04-04T06:52:16.333Z,16.77
2019-04-04T06:54:47.185Z,16.20
2019-04-04T06:57:16.840Z,16.50
2019-04-04T06:59:46.410Z,16.02
2019-04-04T07:02:15.987Z,19.70
2019-04-04T07:04:45.592Z,15.43
2019-04-04T07:07:15.154Z,15.68
2019-04-04T07:09:44.886Z,16.48
2019-04-04T07:12:22.326Z,18.20
2019-04-04T07:14:49.241Z,16.20
2019-04-04T07:17:16.926Z,16.93
2019-04-04T07:19:46.899Z,15.28
2019-04-04T07:22:16.511Z,15.15
2019-04-04T07:24:46.107Z,16.00
2019-04-04T07:27:16.271Z,17.42
2019-04-04T07:29:46.387Z,16.80
2019-04-04T07:32:16.145Z,15.08
2019-04-04T07:34:45.927Z,15.50
2019-04-04T07:37:15.610Z,14.60
2019-04-04T07:39:45.183Z,13.30
2019-04-04T07:42:15.903Z,14.00
2019-04-04T07:44:45.887Z,12.93
2019-04-04T07:47:16.115Z,14.55
2019-04-04T07:49:46.361Z,13.65
2019-04-04T07:52:17.181Z,13.50
2019-04-04T07:54:48.098Z,14.15
2019-04-04T07:57:19.726Z,13.83
2019-04-04T07:59:48.934Z,15.60
2019-04-04T08:02:18.533Z,14.70
2019-04-04T08:04:48.326Z,12.60
2019-04-04T08:07:18.131Z,13.72
2019-04-04T08:09:47.713Z,13.48
2019-04-04T08:12:17.294Z,13.30
2019-04-04T08:14:46.925Z,14.23
2019-04-04T08:17:18.904Z,14.25
2019-04-04T08:19:59.161Z,14.33
2019-04-04T08:22:19.074Z,15.00
2019-04-04T08:24:49.905Z,15.30
2019-04-04T08:27:19.481Z,13.95
2019-04-04T08:29:49.081Z,14.28
2019-04-04T08:32:18.654Z,12.63
2019-04-04T08:34:48.244Z,14.38
2019-04-04T08:37:18.850Z,13.35
2019-04-04T08:39:48.420Z,13.32
2019-04-04T08:42:18.218Z,17.23
2019-04-04T08:44:47.800Z,14.95
2019-04-04T08:47:17.406Z,14.50
2019-04-04T08:49:47.214Z,12.88
2019-04-04T08:52:20.538Z,13.72
2019-04-04T08:54:48.074Z,13.38
2019-04-04T08:57:17.666Z,12.95
2019-04-04T08:59:47.319Z,14.15
2019-04-04T09:02:16.932Z,14.80
2019-04-04T09:04:46.561Z,14.80
2019-04-04T09:07:16.097Z,13.48
2019-04-04T09:09:45.797Z,14.05
2019-04-04T09:12:15.485Z,12.88
2019-04-04T09:14:45.105Z,15.45
2019-04-04T09:17:14.921Z,16.75
2019-04-04T09:19:44.497Z,14.13
2019-04-04T09:22:14.091Z,13.20
2019-04-04T09:24:43.677Z,13.45
2019-04-04T09:27:13.754Z,12.82
2019-04-04T09:29:43.315Z,14.23
2019-04-04T09:32:12.906Z,13.72
2019-04-04T09:34:42.497Z,13.18
2019-04-04T09:37:12.077Z,12.47
2019-04-04T09:39:41.694Z,12.65
2019-04-04T09:42:11.264Z,13.88
2019-04-04T09:44:40.847Z,14.23
2019-04-04T09:47:10.437Z,14.30
2019-04-04T09:49:40.014Z,12.95
2019-04-04T09:52:09.620Z,14.65
2019-04-04T09:54:39.178Z,15.20
2019-04-04T09:57:08.757Z,12.35
2019-04-04T09:59:38.354Z,15.43
2019-04-04T10:02:08.270Z,13.05
2019-04-04T10:04:37.938Z,13.35
2019-04-04T10:07:07.523Z,13.55
2019-04-04T10:09:37.276Z,13.88
2019-04-04T10:12:06.875Z,13.53
2019-04-04T10:14:36.470Z,12.80
2019-04-04T10:17:06.090Z,11.93
2019-04-04T10:19:35.670Z,12.82
2019-04-04T10:22:05.266Z,14.83
2019-04-04T10:24:34.848Z,13.55
2019-04-04T10:27:04.406Z,10.68
2019-04-04T10:29:34.146Z,14.83
2019-04-04T10:32:03.717Z,13.72
2019-04-04T10:34:34.405Z,11.20
2019-04-04T10:37:03.981Z,11.43
2019-04-04T10:39:33.554Z,10.38
2019-04-04T10:42:03.382Z,13.48
2019-04-04T10:44:32.946Z,11.50
2019-04-04T10:47:02.540Z,11.03
2019-04-04T10:49:32.130Z,11.38
2019-04-04T10:52:01.681Z,10.50
2019-04-04T10:54:31.276Z,10.63
2019-04-04T10:57:00.859Z,11.48
2019-04-04T10:59:30.489Z,12.65
2019-04-04T11:02:00.914Z,11.73
2019-04-04T11:04:30.734Z,11.08
2019-04-04T11:07:00.322Z,11.88
2019-04-04T11:09:41.320Z,10.45
2019-04-04T11:12:01.126Z,10.63
2019-04-04T11:14:31.786Z,9.78
2019-04-04T11:17:01.385Z,11.53
2019-04-04T11:19:31.654Z,10.48
2019-04-04T11:22:01.279Z,9.98
2019-04-04T11:24:30.839Z,11.10
2019-04-04T11:27:00.431Z,11.15
2019-04-04T11:29:30.138Z,10.85
2019-04-04T11:31:59.719Z,10.78
2019-04-04T11:34:29.345Z,9.03
2019-04-04T11:36:58.902Z,10.43
2019-04-04T11:39:28.503Z,9.73
2019-04-04T11:41:58.082Z,10.48
2019-04-04T11:44:27.918Z,8.73
2019-04-04T11:46:58.857Z,8.25
2019-04-04T11:49:28.445Z,8.23
2019-04-04T11:51:58.039Z,8.93
2019-04-04T11:54:27.595Z,8.98
2019-04-04T11:56:57.207Z,7.87
2019-04-04T11:59:26.763Z,9.18
2019-04-04T12:01:57.562Z,8.25
2019-04-04T12:04:27.131Z,7.47
2019-04-04T12:06:56.699Z,8.78
2019-04-04T12:09:26.291Z,8.30
2019-04-04T12:11:55.859Z,7.45
2019-04-04T12:14:25.460Z,7.67
2019-04-04T12:16:55.038Z,7.85
2019-04-04T12:19:25.636Z,8.78
2019-04-04T12:21:55.206Z,7.47
2019-04-04T12:24:24.778Z,7.90
2019-04-04T12:26:54.401Z,7.92
2019-04-04T12:29:23.962Z,7.15
2019-04-04T12:31:53.537Z,7.17
2019-04-04T12:34:23.119Z,8.30
2019-04-04T12:36:52.685Z,7.17
2019-04-04T12:39:23.102Z,7.85
2019-04-04T12:41:52.651Z,7.28
2019-04-04T12:44:22.242Z,7.42
2019-04-04T12:46:51.815Z,7.22
2019-04-04T12:49:21.394Z,7.35
2019-04-04T12:51:51.975Z,6.85
2019-04-04T12:54:21.547Z,7.20
2019-04-04T12:56:51.127Z,7.30
2019-04-04T12:59:20.703Z,7.22
2019-04-04T13:01:50.268Z,7.20
2019-04-04T13:04:30.713Z,7.05
2019-04-04T13:06:51.007Z,7.05
2019-04-04T13:09:20.603Z,6.85
2019-04-04T13:11:50.997Z,7.17
2019-04-04T13:14:20.582Z,6.83
2019-04-04T13:16:50.169Z,6.70
2019-04-04T13:19:19.730Z,7.78
2019-04-04T13:21:50.223Z,7.83
2019-04-04T13:24:19.797Z,7.08
2019-04-04T13:26:49.674Z,7.30
2019-04-04T13:29:19.255Z,7.53
2019-04-04T13:31:48.825Z,6.78
2019-04-04T13:34:18.394Z,6.90
2019-04-04T13:36:47.959Z,6.55
2019-04-04T13:39:18.831Z,6.95
2019-04-04T13:41:48.397Z,6.47
2019-04-04T13:44:18.359Z,6.90
2019-04-04T13:46:47.922Z,6.95
2019-04-04T13:49:17.563Z,7.03
2019-04-04T13:51:47.143Z,7.62
2019-04-04T13:54:16.710Z,8.05
2019-04-04T13:56:46.321Z,6.92
2019-04-04T13:59:15.893Z,7.85
2019-04-04T14:01:45.443Z,7.72
2019-04-04T14:04:15.114Z,7.42
2019-04-04T14:06:44.686Z,6.65
2019-04-04T14:09:14.255Z,9.03
2019-04-04T14:11:43.920Z,7.67
2019-04-04T14:14:13.565Z,7.92
2019-04-04T14:16:43.135Z,6.67
2019-04-04T14:19:12.714Z,7.05
2019-04-04T14:21:42.301Z,7.85
2019-04-04T14:24:13.930Z,7.12
2019-04-04T14:26:45.751Z,7.00
2019-04-04T14:29:26.718Z,7.70
2019-04-04T14:31:45.566Z,7.37
2019-04-04T14:34:15.111Z,8.93
2019-04-04T14:36:45.706Z,7.70
2019-04-04T14:39:15.280Z,7.40
2019-04-04T14:41:45.265Z,7.12
2019-04-04T14:44:15.651Z,7.78
2019-04-04T14:46:45.637Z,7.45
2019-04-04T14:49:15.398Z,9.35
2019-04-04T14:51:44.940Z,7.92
2019-04-04T14:54:14.519Z,7.08
2019-04-04T14:56:44.099Z,7.08
2019-04-04T14:59:13.685Z,8.83
2019-04-04T15:01:43.250Z,7.60
2019-04-04T15:04:13.822Z,8.23
2019-04-04T15:06:43.443Z,6.65
2019-04-04T15:09:13.030Z,6.97
2019-04-04T15:11:42.607Z,6.87
2019-04-04T15:14:12.170Z,6.50
2019-04-04T15:16:41.761Z,7.30
2019-04-04T15:19:11.400Z,6.80
2019-04-04T15:21:40.982Z,6.25
2019-04-04T15:24:10.565Z,6.65
2019-04-04T15:26:40.139Z,7.85
2019-04-04T15:29:09.719Z,6.10
2019-04-04T15:31:39.372Z,6.78
2019-04-04T15:34:08.955Z,9.30
2019-04-04T15:36:38.574Z,6.50
2019-04-04T15:39:08.167Z,6.20
2019-04-04T15:41:37.754Z,6.37
2019-04-04T15:44:07.572Z,8.75
2019-04-04T15:46:38.054Z,8.10
2019-04-04T15:49:09.146Z,7.80
2019-04-04T15:51:38.697Z,7.10
2019-04-04T15:54:08.270Z,8.88
2019-04-04T15:56:37.866Z,7.95
2019-04-04T15:59:07.721Z,7.03
2019-04-04T16:01:38.533Z,9.40
2019-04-04T16:04:08.117Z,7.70
2019-04-04T16:06:37.802Z,7.35
2019-04-04T16:09:07.643Z,8.43
2019-04-04T16:11:48.731Z,7.58
2019-04-04T16:14:08.461Z,6.95
2019-04-04T16:16:38.050Z,9.00
2019-04-04T16:19:07.693Z,8.03
2019-04-04T16:21:37.330Z,9.30
2019-04-04T16:24:07.022Z,8.60
2019-04-04T16:26:36.609Z,8.15
2019-04-04T16:29:06.163Z,12.68
2019-04-04T16:31:35.780Z,10.93
2019-04-04T16:34:05.332Z,7.85
2019-04-04T16:36:34.923Z,9.05
2019-04-04T16:39:07.355Z,10.23
2019-04-04T16:41:36.917Z,9.55
2019-04-04T16:44:06.490Z,12.10
2019-04-04T16:46:36.363Z,13.20
2019-04-04T16:49:05.971Z,11.97
2019-04-04T16:51:35.568Z,11.73
2019-04-04T16:54:05.259Z,11.73
2019-04-04T16:56:34.894Z,11.33
2019-04-04T16:59:12.879Z,12.63
2019-04-04T17:01:48.409Z,11.12
2019-04-04T17:04:17.587Z,12.63
2019-04-04T17:06:47.219Z,12.58
2019-04-04T17:09:16.774Z,11.40
2019-04-04T17:11:46.369Z,11.40
2019-04-04T17:14:15.959Z,12.10
2019-04-04T17:16:45.572Z,11.20
2019-04-04T17:19:15.238Z,11.10
2019-04-04T17:21:44.838Z,10.18
2019-04-04T17:24:14.431Z,11.15
2019-04-04T17:26:44.017Z,11.05
2019-04-04T17:29:13.929Z,12.47
2019-04-04T17:31:43.540Z,16.37
2019-04-04T17:34:13.525Z,19.55
2019-04-04T17:36:43.106Z,16.67
2019-04-04T17:39:12.705Z,14.80
2019-04-04T17:41:42.474Z,17.20
2019-04-04T17:44:13.452Z,17.10
2019-04-04T17:46:43.597Z,14.05
2019-04-04T17:49:13.509Z,16.42
2019-04-04T17:51:43.324Z,14.73
2019-04-04T17:54:13.000Z,12.98
2019-04-04T17:56:43.680Z,14.30
2019-04-04T17:59:13.241Z,15.88
2019-04-04T18:01:42.812Z,14.50
2019-04-04T18:04:12.420Z,15.40
2019-04-04T18:06:41.971Z,15.30
2019-04-04T18:09:11.555Z,15.72
2019-04-04T18:11:41.337Z,14.78
2019-04-04T18:14:11.078Z,14.30
2019-04-04T18:16:40.871Z,15.65
2019-04-04T18:19:10.466Z,13.83
2019-04-04T18:21:40.165Z,14.07
2019-04-04T18:24:09.871Z,14.40
2019-04-04T18:26:39.475Z,14.33
2019-04-04T18:29:09.063Z,18.00
2019-04-04T18:31:38.658Z,15.83
2019-04-04T18:34:08.877Z,16.67
2019-04-04T18:36:39.224Z,17.73
2019-04-04T18:39:09.771Z,18.25
2019-04-04T18:41:39.354Z,19.80
2019-04-04T18:44:08.950Z,19.92
2019-04-04T18:46:38.541Z,17.57
2019-04-04T18:49:08.136Z,16.95
2019-04-04T18:51:38.728Z,18.35
2019-04-04T18:54:08.297Z,18.20
2019-04-04T18:56:37.899Z,19.95
2019-04-04T18:59:08.103Z,20.23
2019-04-04T19:01:39.055Z,19.40
2019-04-04T19:04:08.661Z,19.82
2019-04-04T19:06:38.222Z,19.50
2019-04-04T19:09:15.251Z,19.05
2019-04-04T19:11:41.878Z,18.25
2019-04-04T19:14:11.854Z,18.90
2019-04-04T19:16:41.775Z,18.85
2019-04-04T19:19:11.698Z,18.70
2019-04-04T19:21:41.282Z,17.67
2019-04-04T19:24:10.860Z,18.00
2019-04-04T19:26:40.449Z,17.87
2019-04-04T19:29:10.025Z,19.27
2019-04-04T19:31:39.593Z,17.17
2019-04-04T19:34:09.171Z,16.15
2019-04-04T19:36:41.699Z,18.77
2019-04-04T19:39:11.569Z,19.00
2019-04-04T19:41:41.429Z,18.82
2019-04-04T19:44:11.074Z,20.25
2019-04-04T19:46:40.650Z,19.80
2019-04-04T19:49:10.230Z,19.62
2019-04-04T19:51:39.866Z,19.95
2019-04-04T19:54:09.431Z,20.92
2019-04-04T19:56:39.041Z,22.70
2019-04-04T19:59:08.615Z,20.00
2019-04-04T20:01:38.184Z,21.62
2019-04-04T20:04:07.802Z,21.50
2019-04-04T20:06:37.378Z,21.62
2019-04-04T20:09:07.467Z,20.43
2019-04-04T20:11:37.239Z,21.87
2019-04-04T20:14:06.959Z,18.65
2019-04-04T20:16:36.578Z,19.00
2019-04-04T20:19:06.246Z,20.48
2019-04-04T20:21:35.842Z,20.00
2019-04-04T20:24:05.450Z,19.60
2019-04-04T20:26:36.203Z,21.37
2019-04-04T20:29:05.819Z,20.52
2019-04-04T20:31:35.420Z,18.73
2019-04-04T20:34:06.142Z,21.48
2019-04-04T20:36:37.099Z,18.70
2019-04-04T20:39:07.281Z,19.67
2019-04-04T20:41:37.007Z,19.32
2019-04-04T20:44:06.567Z,20.52
2019-04-04T20:46:36.144Z,19.52
2019-04-04T20:49:05.737Z,21.50
2019-04-04T20:51:35.376Z,22.40
2019-04-04T20:54:06.020Z,22.02
2019-04-04T20:56:35.578Z,19.85
2019-04-04T20:59:05.178Z,21.35
2019-04-04T21:01:34.776Z,19.10
2019-04-04T21:04:04.369Z,22.50
2019-04-04T21:06:33.998Z,19.95
2019-04-04T21:09:04.595Z,19.48
2019-04-04T21:11:34.362Z,20.62
2019-04-04T21:14:03.974Z,21.48
2019-04-04T21:16:33.582Z,19.52
2019-04-04T21:19:03.264Z,19.90
2019-04-04T21:21:32.847Z,18.60
2019-04-04T21:24:02.457Z,20.90
2019-04-04T21:26:32.038Z,19.12
2019-04-04T21:29:01.662Z,21.12
2019-04-04T21:31:32.224Z,18.87
2019-04-04T21:34:01.784Z,19.37
2019-04-04T21:36:31.394Z,19.95
2019-04-04T21:39:00.983Z,22.30
2019-04-04T21:41:32.085Z,18.92
2019-04-04T21:44:08.693Z,24.12
2019-04-04T21:46:32.887Z,24.20
2019-04-04T21:49:02.550Z,20.68
2019-04-04T21:51:32.111Z,20.57
2019-04-04T21:54:01.676Z,19.70
2019-04-04T21:56:31.273Z,21.90
2019-04-04T21:59:00.836Z,22.07
2019-04-04T22:01:30.546Z,21.23
2019-04-04T22:04:00.111Z,21.45
2019-04-04T22:06:29.714Z,19.67
2019-04-04T22:08:59.299Z,24.55
2019-04-04T22:11:28.898Z,25.15
2019-04-04T22:13:58.493Z,28.10
2019-04-04T22:16:28.068Z,22.65
2019-04-04T22:18:57.662Z,28.65
2019-04-04T22:21:27.496Z,23.65
2019-04-04T22:23:57.134Z,25.50
2019-04-04T22:26:26.690Z,22.13
2019-04-04T22:28:56.285Z,22.60
2019-04-04T22:31:25.975Z,24.92
2019-04-04T22:33:55.557Z,21.15
2019-04-04T22:36:25.162Z,22.73
2019-04-04T22:38:54.731Z,19.20
2019-04-04T22:41:24.337Z,19.73
2019-04-04T22:44:03.267Z,23.05
2019-04-04T22:46:25.130Z,21.02
2019-04-04T22:48:54.858Z,18.50
2019-04-04T22:51:24.437Z,18.85
2019-04-04T22:53:54.036Z,21.48
2019-04-04T22:56:24.470Z,19.17
2019-04-04T22:58:54.054Z,20.55
2019-04-04T23:01:23.698Z,17.67
2019-04-04T23:03:53.265Z,19.30
2019-04-04T23:06:22.861Z,17.95
2019-04-04T23:08:52.442Z,21.65
2019-04-04T23:11:22.030Z,19.30
2019-04-04T23:13:51.961Z,18.00
2019-04-04T23:16:21.541Z,19.23
2019-04-04T23:18:51.115Z,18.12
2019-04-04T23:21:20.715Z,18.77
2019-04-04T23:23:50.275Z,17.85
2019-04-04T23:26:19.910Z,18.42
2019-04-04T23:28:49.485Z,17.90
2019-04-04T23:31:19.065Z,17.07
2019-04-04T23:33:48.685Z,17.10
2019-04-04T23:36:18.262Z,17.40
2019-04-04T23:38:47.887Z,16.87
2019-04-04T23:41:17.471Z,16.15
2019-04-04T23:43:47.057Z,17.55
2019-04-04T23:46:16.657Z,16.60
2019-04-04T23:48:46.212Z,17.07
2019-04-04T23:51:15.820Z,17.82
2019-04-04T23:53:45.398Z,16.87
2019-04-04T23:56:14.974Z,17.67
2019-04-04T23:58:44.551Z,18.25
